sensor_id;sensor_type;location;lat;lon;timestamp;P1;durP1;ratioP1;P2;durP2;ratioP2
75044;SDS011;63614;56.026;35.960;2023-05-18T00:01:08;7.18;;;2.92;;
75044;SDS011;63614;56.026;35.960;2023-05-18T00:03:35;7.05;;;3.10;;
75044;SDS011;63614;56.026;35.960;2023-05-18T00:06:03;5.70;;;3.00;;
75044;SDS011;63614;56.026;35.960;2023-05-18T00:08:34;6.55;;;3.05;;
75044;SDS011;63614;56.026;35.960;2023-05-18T00:11:01;12.30;;;3.05;;
75044;SDS011;63614;56.026;35.960;2023-05-18T00:13:28;9.38;;;3.10;;
75044;SDS011;63614;56.026;35.960;2023-05-18T00:15:54;12.70;;;3.20;;
75044;SDS011;63614;56.026;35.960;2023-05-18T00:18:20;8.80;;;3.10;;
75044;SDS011;63614;56.026;35.960;2023-05-18T00:20:49;6.97;;;3.38;;
75044;SDS011;63614;56.026;35.960;2023-05-18T00:23:17;10.55;;;2.90;;
75044;SDS011;63614;56.026;35.960;2023-05-18T00:25:43;9.27;;;2.72;;
75044;SDS011;63614;56.026;35.960;2023-05-18T00:28:09;13.02;;;2.90;;
75044;SDS011;63614;56.026;35.960;2023-05-18T00:30:36;7.38;;;3.05;;
75044;SDS011;63614;56.026;35.960;2023-05-18T00:33:02;15.05;;;2.92;;
75044;SDS011;63614;56.026;35.960;2023-05-18T00:35:29;10.75;;;2.85;;
75044;SDS011;63614;56.026;35.960;2023-05-18T00:37:54;9.90;;;2.92;;
75044;SDS011;63614;56.026;35.960;2023-05-18T00:40:21;11.35;;;3.05;;
75044;SDS011;63614;56.026;35.960;2023-05-18T00:42:49;5.93;;;2.80;;
75044;SDS011;63614;56.026;35.960;2023-05-18T00:45:18;21.02;;;4.57;;
75044;SDS011;63614;56.026;35.960;2023-05-18T00:47:43;11.10;;;2.72;;
75044;SDS011;63614;56.026;35.960;2023-05-18T00:50:10;10.10;;;3.10;;
75044;SDS011;63614;56.026;35.960;2023-05-18T00:52:36;13.07;;;2.80;;
75044;SDS011;63614;56.026;35.960;2023-05-18T00:55:03;5.63;;;2.67;;
75044;SDS011;63614;56.026;35.960;2023-05-18T00:57:32;18.02;;;3.47;;
75044;SDS011;63614;56.026;35.960;2023-05-18T00:59:59;9.85;;;2.47;;
75044;SDS011;63614;56.026;35.960;2023-05-18T01:02:25;19.50;;;3.10;;
75044;SDS011;63614;56.026;35.960;2023-05-18T01:04:54;14.38;;;3.00;;
75044;SDS011;63614;56.026;35.960;2023-05-18T01:07:20;7.75;;;2.88;;
75044;SDS011;63614;56.026;35.960;2023-05-18T01:09:54;7.07;;;2.85;;
75044;SDS011;63614;56.026;35.960;2023-05-18T01:12:23;11.30;;;3.10;;
75044;SDS011;63614;56.026;35.960;2023-05-18T01:15:07;12.40;;;2.85;;
75044;SDS011;63614;56.026;35.960;2023-05-18T01:18:00;12.07;;;3.25;;
75044;SDS011;63614;56.026;35.960;2023-05-18T01:29:08;9.00;;;3.13;;
75044;SDS011;63614;56.026;35.960;2023-05-18T01:31:35;9.25;;;3.10;;
75044;SDS011;63614;56.026;35.960;2023-05-18T01:34:01;13.98;;;3.00;;
75044;SDS011;63614;56.026;35.960;2023-05-18T01:36:27;6.82;;;3.03;;
75044;SDS011;63614;56.026;35.960;2023-05-18T01:38:53;13.55;;;2.50;;
75044;SDS011;63614;56.026;35.960;2023-05-18T01:41:21;10.30;;;2.75;;
75044;SDS011;63614;56.026;35.960;2023-05-18T01:44:00;16.23;;;2.80;;
75044;SDS011;63614;56.026;35.960;2023-05-18T01:52:18;14.32;;;3.08;;
75044;SDS011;63614;56.026;35.960;2023-05-18T01:54:51;5.15;;;2.33;;
75044;SDS011;63614;56.026;35.960;2023-05-18T01:57:22;11.70;;;2.97;;
75044;SDS011;63614;56.026;35.960;2023-05-18T01:59:52;12.90;;;2.80;;
75044;SDS011;63614;56.026;35.960;2023-05-18T02:02:20;7.63;;;2.90;;
75044;SDS011;63614;56.026;35.960;2023-05-18T02:04:48;9.05;;;2.88;;
75044;SDS011;63614;56.026;35.960;2023-05-18T02:07:16;10.10;;;2.80;;
75044;SDS011;63614;56.026;35.960;2023-05-18T02:09:42;16.20;;;3.00;;
75044;SDS011;63614;56.026;35.960;2023-05-18T02:12:08;14.32;;;3.10;;
75044;SDS011;63614;56.026;35.960;2023-05-18T02:14:35;10.45;;;2.88;;
75044;SDS011;63614;56.026;35.960;2023-05-18T02:17:01;9.57;;;2.70;;
75044;SDS011;63614;56.026;35.960;2023-05-18T02:19:27;12.13;;;2.70;;
75044;SDS011;63614;56.026;35.960;2023-05-18T02:21:55;8.45;;;2.97;;
75044;SDS011;63614;56.026;35.960;2023-05-18T02:24:21;11.38;;;3.10;;
75044;SDS011;63614;56.026;35.960;2023-05-18T02:26:52;6.90;;;2.90;;
75044;SDS011;63614;56.026;35.960;2023-05-18T02:29:18;11.13;;;3.22;;
75044;SDS011;63614;56.026;35.960;2023-05-18T02:31:47;11.43;;;3.08;;
75044;SDS011;63614;56.026;35.960;2023-05-18T02:34:12;11.10;;;2.92;;
75044;SDS011;63614;56.026;35.960;2023-05-18T02:36:39;7.85;;;2.80;;
75044;SDS011;63614;56.026;35.960;2023-05-18T02:39:07;9.65;;;3.10;;
75044;SDS011;63614;56.026;35.960;2023-05-18T02:41:35;11.63;;;3.03;;
75044;SDS011;63614;56.026;35.960;2023-05-18T02:44:01;9.68;;;2.85;;
75044;SDS011;63614;56.026;35.960;2023-05-18T02:46:28;10.68;;;3.35;;
75044;SDS011;63614;56.026;35.960;2023-05-18T02:48:54;17.08;;;2.75;;
75044;SDS011;63614;56.026;35.960;2023-05-18T02:51:21;13.57;;;2.90;;
75044;SDS011;63614;56.026;35.960;2023-05-18T02:53:48;9.10;;;2.78;;
75044;SDS011;63614;56.026;35.960;2023-05-18T02:56:16;10.40;;;3.22;;
75044;SDS011;63614;56.026;35.960;2023-05-18T02:58:55;9.15;;;3.13;;
75044;SDS011;63614;56.026;35.960;2023-05-18T03:01:33;17.05;;;3.35;;
75044;SDS011;63614;56.026;35.960;2023-05-18T03:04:01;10.43;;;2.88;;
75044;SDS011;63614;56.026;35.960;2023-05-18T03:06:28;8.05;;;3.42;;
75044;SDS011;63614;56.026;35.960;2023-05-18T03:08:57;13.52;;;3.38;;
75044;SDS011;63614;56.026;35.960;2023-05-18T03:11:31;5.50;;;2.83;;
75044;SDS011;63614;56.026;35.960;2023-05-18T03:13:57;10.02;;;2.95;;
75044;SDS011;63614;56.026;35.960;2023-05-18T03:16:22;13.88;;;3.35;;
75044;SDS011;63614;56.026;35.960;2023-05-18T03:18:56;8.07;;;2.90;;
75044;SDS011;63614;56.026;35.960;2023-05-18T03:21:32;8.52;;;2.80;;
75044;SDS011;63614;56.026;35.960;2023-05-18T03:24:04;10.25;;;3.00;;
75044;SDS011;63614;56.026;35.960;2023-05-18T03:26:33;14.63;;;3.08;;
75044;SDS011;63614;56.026;35.960;2023-05-18T03:28:59;14.65;;;2.80;;
75044;SDS011;63614;56.026;35.960;2023-05-18T03:33:56;8.13;;;3.08;;
75044;SDS011;63614;56.026;35.960;2023-05-18T03:36:22;7.03;;;2.90;;
75044;SDS011;63614;56.026;35.960;2023-05-18T03:38:51;19.63;;;3.00;;
75044;SDS011;63614;56.026;35.960;2023-05-18T03:41:17;9.82;;;3.00;;
75044;SDS011;63614;56.026;35.960;2023-05-18T03:43:43;9.57;;;3.22;;
75044;SDS011;63614;56.026;35.960;2023-05-18T03:46:10;7.90;;;3.33;;
75044;SDS011;63614;56.026;35.960;2023-05-18T03:48:35;7.35;;;2.90;;
75044;SDS011;63614;56.026;35.960;2023-05-18T03:51:01;11.57;;;3.35;;
75044;SDS011;63614;56.026;35.960;2023-05-18T03:53:29;5.65;;;2.53;;
75044;SDS011;63614;56.026;35.960;2023-05-18T03:55:55;12.10;;;2.63;;
75044;SDS011;63614;56.026;35.960;2023-05-18T03:58:21;8.48;;;2.60;;
75044;SDS011;63614;56.026;35.960;2023-05-18T04:00:47;7.68;;;2.60;;
75044;SDS011;63614;56.026;35.960;2023-05-18T04:03:14;8.07;;;2.90;;
75044;SDS011;63614;56.026;35.960;2023-05-18T04:05:43;6.03;;;2.80;;
75044;SDS011;63614;56.026;35.960;2023-05-18T04:08:10;9.95;;;2.90;;
75044;SDS011;63614;56.026;35.960;2023-05-18T04:10:40;8.88;;;3.38;;
75044;SDS011;63614;56.026;35.960;2023-05-18T04:13:07;7.07;;;2.78;;
75044;SDS011;63614;56.026;35.960;2023-05-18T04:15:34;6.55;;;2.70;;
75044;SDS011;63614;56.026;35.960;2023-05-18T04:18:01;10.70;;;3.25;;
75044;SDS011;63614;56.026;35.960;2023-05-18T04:20:27;9.55;;;3.10;;
75044;SDS011;63614;56.026;35.960;2023-05-18T04:22:54;12.40;;;3.30;;
75044;SDS011;63614;56.026;35.960;2023-05-18T04:25:22;8.68;;;3.00;;
75044;SDS011;63614;56.026;35.960;2023-05-18T04:27:54;8.20;;;2.63;;
75044;SDS011;63614;56.026;35.960;2023-05-18T04:30:22;8.65;;;2.70;;
75044;SDS011;63614;56.026;35.960;2023-05-18T04:32:51;8.15;;;3.30;;
75044;SDS011;63614;56.026;35.960;2023-05-18T04:35:21;10.25;;;3.00;;
75044;SDS011;63614;56.026;35.960;2023-05-18T04:37:47;6.85;;;3.17;;
75044;SDS011;63614;56.026;35.960;2023-05-18T04:40:16;13.63;;;3.80;;
75044;SDS011;63614;56.026;35.960;2023-05-18T04:42:43;15.02;;;3.00;;
75044;SDS011;63614;56.026;35.960;2023-05-18T04:45:12;12.20;;;2.72;;
75044;SDS011;63614;56.026;35.960;2023-05-18T04:47:50;10.60;;;3.00;;
75044;SDS011;63614;56.026;35.960;2023-05-18T04:50:20;12.30;;;2.75;;
75044;SDS011;63614;56.026;35.960;2023-05-18T04:52:50;23.48;;;2.30;;
75044;SDS011;63614;56.026;35.960;2023-05-18T04:55:19;9.95;;;2.40;;
75044;SDS011;63614;56.026;35.960;2023-05-18T04:58:04;11.30;;;2.72;;
75044;SDS011;63614;56.026;35.960;2023-05-18T05:00:30;9.13;;;2.63;;
75044;SDS011;63614;56.026;35.960;2023-05-18T05:02:56;16.63;;;2.80;;
75044;SDS011;63614;56.026;35.960;2023-05-18T05:05:23;24.45;;;2.72;;
75044;SDS011;63614;56.026;35.960;2023-05-18T05:07:50;8.68;;;2.60;;
75044;SDS011;63614;56.026;35.960;2023-05-18T05:10:17;8.18;;;2.72;;
75044;SDS011;63614;56.026;35.960;2023-05-18T05:12:45;24.63;;;3.28;;
75044;SDS011;63614;56.026;35.960;2023-05-18T05:15:11;9.63;;;2.95;;
75044;SDS011;63614;56.026;35.960;2023-05-18T05:17:37;7.05;;;2.70;;
75044;SDS011;63614;56.026;35.960;2023-05-18T05:20:06;17.02;;;2.55;;
75044;SDS011;63614;56.026;35.960;2023-05-18T05:22:33;8.93;;;2.25;;
75044;SDS011;63614;56.026;35.960;2023-05-18T05:25:02;10.90;;;2.70;;
75044;SDS011;63614;56.026;35.960;2023-05-18T05:27:29;13.82;;;3.50;;
75044;SDS011;63614;56.026;35.960;2023-05-18T05:29:55;11.63;;;3.00;;
75044;SDS011;63614;56.026;35.960;2023-05-18T05:32:22;15.30;;;2.47;;
75044;SDS011;63614;56.026;35.960;2023-05-18T05:34:48;27.50;;;3.65;;
75044;SDS011;63614;56.026;35.960;2023-05-18T05:37:16;15.70;;;2.63;;
75044;SDS011;63614;56.026;35.960;2023-05-18T05:42:09;8.55;;;2.28;;
75044;SDS011;63614;56.026;35.960;2023-05-18T05:44:36;10.63;;;2.38;;
75044;SDS011;63614;56.026;35.960;2023-05-18T05:47:02;12.25;;;2.80;;
75044;SDS011;63614;56.026;35.960;2023-05-18T05:49:29;18.80;;;3.38;;
75044;SDS011;63614;56.026;35.960;2023-05-18T05:51:56;38.30;;;5.90;;
75044;SDS011;63614;56.026;35.960;2023-05-18T05:54:23;17.95;;;4.80;;
75044;SDS011;63614;56.026;35.960;2023-05-18T05:56:49;13.18;;;2.60;;
75044;SDS011;63614;56.026;35.960;2023-05-18T05:59:16;16.02;;;2.58;;
75044;SDS011;63614;56.026;35.960;2023-05-18T06:01:46;12.38;;;2.40;;
75044;SDS011;63614;56.026;35.960;2023-05-18T06:04:13;11.30;;;2.45;;
75044;SDS011;63614;56.026;35.960;2023-05-18T06:06:41;13.90;;;3.25;;
75044;SDS011;63614;56.026;35.960;2023-05-18T06:09:09;12.60;;;3.00;;
75044;SDS011;63614;56.026;35.960;2023-05-18T06:11:36;11.50;;;3.00;;
75044;SDS011;63614;56.026;35.960;2023-05-18T06:14:20;10.77;;;2.50;;
75044;SDS011;63614;56.026;35.960;2023-05-18T06:16:46;12.10;;;2.78;;
75044;SDS011;63614;56.026;35.960;2023-05-18T06:19:30;31.73;;;3.20;;
75044;SDS011;63614;56.026;35.960;2023-05-18T06:21:57;19.15;;;2.97;;
75044;SDS011;63614;56.026;35.960;2023-05-18T06:24:26;9.68;;;2.75;;
75044;SDS011;63614;56.026;35.960;2023-05-18T06:27:22;12.88;;;3.05;;
75044;SDS011;63614;56.026;35.960;2023-05-18T06:30:06;11.15;;;3.00;;
75044;SDS011;63614;56.026;35.960;2023-05-18T06:32:53;9.63;;;2.85;;
75044;SDS011;63614;56.026;35.960;2023-05-18T06:35:19;13.75;;;3.45;;
75044;SDS011;63614;56.026;35.960;2023-05-18T06:37:45;47.03;;;5.40;;
75044;SDS011;63614;56.026;35.960;2023-05-18T06:40:11;30.33;;;3.72;;
75044;SDS011;63614;56.026;35.960;2023-05-18T06:42:40;15.73;;;3.15;;
75044;SDS011;63614;56.026;35.960;2023-05-18T06:45:44;12.63;;;3.28;;
75044;SDS011;63614;56.026;35.960;2023-05-18T06:48:22;35.80;;;4.55;;
75044;SDS011;63614;56.026;35.960;2023-05-18T06:50:50;12.20;;;3.00;;
75044;SDS011;63614;56.026;35.960;2023-05-18T06:53:16;22.52;;;3.28;;
75044;SDS011;63614;56.026;35.960;2023-05-18T06:55:43;16.67;;;3.50;;
75044;SDS011;63614;56.026;35.960;2023-05-18T06:58:09;10.77;;;3.40;;
75044;SDS011;63614;56.026;35.960;2023-05-18T07:00:36;15.85;;;3.30;;
75044;SDS011;63614;56.026;35.960;2023-05-18T07:03:03;15.35;;;3.60;;
75044;SDS011;63614;56.026;35.960;2023-05-18T07:05:30;7.17;;;3.03;;
75044;SDS011;63614;56.026;35.960;2023-05-18T07:07:55;25.33;;;3.53;;
75044;SDS011;63614;56.026;35.960;2023-05-18T07:10:24;16.27;;;3.00;;
75044;SDS011;63614;56.026;35.960;2023-05-18T07:12:49;35.30;;;3.90;;
75044;SDS011;63614;56.026;35.960;2023-05-18T07:15:15;13.60;;;3.40;;
75044;SDS011;63614;56.026;35.960;2023-05-18T07:17:41;35.33;;;3.90;;
75044;SDS011;63614;56.026;35.960;2023-05-18T07:20:09;37.53;;;4.80;;
75044;SDS011;63614;56.026;35.960;2023-05-18T07:22:35;20.85;;;4.65;;
75044;SDS011;63614;56.026;35.960;2023-05-18T07:25:00;28.00;;;3.60;;
75044;SDS011;63614;56.026;35.960;2023-05-18T07:27:27;12.43;;;3.13;;
75044;SDS011;63614;56.026;35.960;2023-05-18T07:29:58;12.25;;;3.13;;
75044;SDS011;63614;56.026;35.960;2023-05-18T07:32:24;11.10;;;2.78;;
75044;SDS011;63614;56.026;35.960;2023-05-18T07:34:50;15.77;;;3.17;;
75044;SDS011;63614;56.026;35.960;2023-05-18T07:37:15;11.57;;;2.90;;
75044;SDS011;63614;56.026;35.960;2023-05-18T07:39:41;14.65;;;3.17;;
75044;SDS011;63614;56.026;35.960;2023-05-18T07:42:07;19.67;;;3.40;;
75044;SDS011;63614;56.026;35.960;2023-05-18T07:44:33;9.63;;;3.10;;
75044;SDS011;63614;56.026;35.960;2023-05-18T07:46:59;58.10;;;4.70;;
75044;SDS011;63614;56.026;35.960;2023-05-18T07:49:25;15.60;;;3.20;;
75044;SDS011;63614;56.026;35.960;2023-05-18T07:51:51;28.98;;;4.50;;
75044;SDS011;63614;56.026;35.960;2023-05-18T07:54:17;9.98;;;3.60;;
75044;SDS011;63614;56.026;35.960;2023-05-18T07:56:45;10.38;;;2.88;;
75044;SDS011;63614;56.026;35.960;2023-05-18T07:59:11;11.55;;;3.22;;
75044;SDS011;63614;56.026;35.960;2023-05-18T08:01:37;9.90;;;2.85;;
75044;SDS011;63614;56.026;35.960;2023-05-18T08:04:05;8.73;;;2.75;;
75044;SDS011;63614;56.026;35.960;2023-05-18T08:06:31;18.88;;;3.05;;
75044;SDS011;63614;56.026;35.960;2023-05-18T08:08:57;14.97;;;3.20;;
75044;SDS011;63614;56.026;35.960;2023-05-18T08:11:23;10.77;;;2.85;;
75044;SDS011;63614;56.026;35.960;2023-05-18T08:13:49;6.97;;;2.80;;
75044;SDS011;63614;56.026;35.960;2023-05-18T08:16:15;12.52;;;3.67;;
75044;SDS011;63614;56.026;35.960;2023-05-18T08:19:00;10.60;;;2.88;;
75044;SDS011;63614;56.026;35.960;2023-05-18T08:21:26;10.98;;;2.90;;
75044;SDS011;63614;56.026;35.960;2023-05-18T08:23:52;16.17;;;2.92;;
75044;SDS011;63614;56.026;35.960;2023-05-18T08:26:18;15.55;;;3.42;;
75044;SDS011;63614;56.026;35.960;2023-05-18T08:28:44;17.08;;;3.28;;
75044;SDS011;63614;56.026;35.960;2023-05-18T08:31:10;14.07;;;3.15;;
75044;SDS011;63614;56.026;35.960;2023-05-18T08:33:36;13.60;;;3.40;;
75044;SDS011;63614;56.026;35.960;2023-05-18T08:36:02;16.73;;;3.03;;
75044;SDS011;63614;56.026;35.960;2023-05-18T08:38:29;17.05;;;4.65;;
75044;SDS011;63614;56.026;35.960;2023-05-18T08:44:44;16.77;;;3.15;;
75044;SDS011;63614;56.026;35.960;2023-05-18T08:47:03;15.95;;;2.92;;
75044;SDS011;63614;56.026;35.960;2023-05-18T08:49:32;14.60;;;3.45;;
75044;SDS011;63614;56.026;35.960;2023-05-18T08:51:59;9.50;;;2.97;;
75044;SDS011;63614;56.026;35.960;2023-05-18T08:54:29;8.85;;;2.88;;
75044;SDS011;63614;56.026;35.960;2023-05-18T08:56:56;11.60;;;3.15;;
75044;SDS011;63614;56.026;35.960;2023-05-18T08:59:24;9.85;;;2.90;;
75044;SDS011;63614;56.026;35.960;2023-05-18T09:01:55;5.85;;;2.83;;
75044;SDS011;63614;56.026;35.960;2023-05-18T09:04:21;34.00;;;3.85;;
75044;SDS011;63614;56.026;35.960;2023-05-18T09:06:48;22.60;;;3.05;;
75044;SDS011;63614;56.026;35.960;2023-05-18T09:09:18;10.80;;;2.97;;
75044;SDS011;63614;56.026;35.960;2023-05-18T09:11:46;11.68;;;3.15;;
75044;SDS011;63614;56.026;35.960;2023-05-18T09:14:12;14.63;;;3.47;;
75044;SDS011;63614;56.026;35.960;2023-05-18T09:16:38;9.37;;;2.93;;
75044;SDS011;63614;56.026;35.960;2023-05-18T09:19:04;12.15;;;3.30;;
75044;SDS011;63614;56.026;35.960;2023-05-18T09:21:31;17.13;;;3.55;;
75044;SDS011;63614;56.026;35.960;2023-05-18T09:23:58;8.90;;;3.40;;
75044;SDS011;63614;56.026;35.960;2023-05-18T09:26:27;14.38;;;3.33;;
75044;SDS011;63614;56.026;35.960;2023-05-18T09:28:53;9.93;;;2.85;;
75044;SDS011;63614;56.026;35.960;2023-05-18T09:31:20;8.18;;;3.30;;
75044;SDS011;63614;56.026;35.960;2023-05-18T09:33:48;16.15;;;3.60;;
75044;SDS011;63614;56.026;35.960;2023-05-18T09:36:16;17.98;;;3.30;;
75044;SDS011;63614;56.026;35.960;2023-05-18T09:38:43;7.80;;;3.08;;
75044;SDS011;63614;56.026;35.960;2023-05-18T09:41:11;9.27;;;3.30;;
75044;SDS011;63614;56.026;35.960;2023-05-18T09:43:39;12.30;;;3.10;;
75044;SDS011;63614;56.026;35.960;2023-05-18T09:46:06;11.50;;;3.45;;
75044;SDS011;63614;56.026;35.960;2023-05-18T09:48:34;15.82;;;3.80;;
75044;SDS011;63614;56.026;35.960;2023-05-18T09:51:01;14.02;;;3.28;;
75044;SDS011;63614;56.026;35.960;2023-05-18T09:53:28;16.02;;;3.58;;
75044;SDS011;63614;56.026;35.960;2023-05-18T09:55:54;13.15;;;3.60;;
75044;SDS011;63614;56.026;35.960;2023-05-18T09:58:20;14.98;;;3.80;;
75044;SDS011;63614;56.026;35.960;2023-05-18T10:00:46;20.67;;;3.58;;
75044;SDS011;63614;56.026;35.960;2023-05-18T10:03:22;13.05;;;3.35;;
75044;SDS011;63614;56.026;35.960;2023-05-18T10:05:49;37.75;;;3.67;;
75044;SDS011;63614;56.026;35.960;2023-05-18T10:08:16;8.48;;;3.03;;
75044;SDS011;63614;56.026;35.960;2023-05-18T10:10:46;9.48;;;2.90;;
75044;SDS011;63614;56.026;35.960;2023-05-18T10:13:14;14.60;;;3.13;;
75044;SDS011;63614;56.026;35.960;2023-05-18T10:16:06;13.80;;;3.85;;
75044;SDS011;63614;56.026;35.960;2023-05-18T10:18:35;17.45;;;4.55;;
75044;SDS011;63614;56.026;35.960;2023-05-18T10:21:04;13.57;;;3.13;;
75044;SDS011;63614;56.026;35.960;2023-05-18T10:23:34;10.77;;;3.47;;
75044;SDS011;63614;56.026;35.960;2023-05-18T10:28:40;12.27;;;3.45;;
75044;SDS011;63614;56.026;35.960;2023-05-18T10:31:08;16.23;;;2.88;;
75044;SDS011;63614;56.026;35.960;2023-05-18T10:33:35;10.55;;;3.00;;
75044;SDS011;63614;56.026;35.960;2023-05-18T10:36:02;15.43;;;4.07;;
75044;SDS011;63614;56.026;35.960;2023-05-18T10:40:56;15.60;;;2.95;;
75044;SDS011;63614;56.026;35.960;2023-05-18T10:43:25;9.05;;;3.05;;
75044;SDS011;63614;56.026;35.960;2023-05-18T10:45:53;20.73;;;3.00;;
75044;SDS011;63614;56.026;35.960;2023-05-18T10:48:20;13.68;;;2.97;;
75044;SDS011;63614;56.026;35.960;2023-05-18T10:50:48;12.93;;;3.05;;
75044;SDS011;63614;56.026;35.960;2023-05-18T10:53:19;13.52;;;3.17;;
75044;SDS011;63614;56.026;35.960;2023-05-18T10:55:47;14.23;;;2.80;;
75044;SDS011;63614;56.026;35.960;2023-05-18T10:58:32;12.77;;;3.10;;
75044;SDS011;63614;56.026;35.960;2023-05-18T11:01:18;15.60;;;3.03;;
75044;SDS011;63614;56.026;35.960;2023-05-18T11:04:03;13.05;;;2.90;;
75044;SDS011;63614;56.026;35.960;2023-05-18T11:06:57;6.10;;;2.40;;
75044;SDS011;63614;56.026;35.960;2023-05-18T11:09:44;16.38;;;2.80;;
75044;SDS011;63614;56.026;35.960;2023-05-18T11:12:29;19.33;;;2.85;;
75044;SDS011;63614;56.026;35.960;2023-05-18T11:15:15;16.93;;;3.17;;
75044;SDS011;63614;56.026;35.960;2023-05-18T11:18:12;7.15;;;2.90;;
75044;SDS011;63614;56.026;35.960;2023-05-18T11:20:59;11.73;;;2.90;;
75044;SDS011;63614;56.026;35.960;2023-05-18T11:27:15;13.75;;;3.58;;
75044;SDS011;63614;56.026;35.960;2023-05-18T11:30:00;11.00;;;3.55;;
75044;SDS011;63614;56.026;35.960;2023-05-18T11:32:48;11.02;;;3.00;;
75044;SDS011;63614;56.026;35.960;2023-05-18T11:35:52;12.68;;;3.63;;
75044;SDS011;63614;56.026;35.960;2023-05-18T11:39:03;7.68;;;3.35;;
75044;SDS011;63614;56.026;35.960;2023-05-18T11:41:57;8.50;;;3.22;;
75044;SDS011;63614;56.026;35.960;2023-05-18T11:44:52;10.95;;;3.33;;
75044;SDS011;63614;56.026;35.960;2023-05-18T11:47:38;7.53;;;3.08;;
75044;SDS011;63614;56.026;35.960;2023-05-18T11:50:23;16.92;;;3.22;;
75044;SDS011;63614;56.026;35.960;2023-05-18T11:53:08;14.38;;;3.55;;
75044;SDS011;63614;56.026;35.960;2023-05-18T11:55:58;14.25;;;3.22;;
75044;SDS011;63614;56.026;35.960;2023-05-18T11:58:43;17.05;;;3.38;;
75044;SDS011;63614;56.026;35.960;2023-05-18T12:01:27;27.55;;;3.70;;
75044;SDS011;63614;56.026;35.960;2023-05-18T12:04:12;11.82;;;3.22;;
75044;SDS011;63614;56.026;35.960;2023-05-18T12:06:58;8.50;;;3.05;;
75044;SDS011;63614;56.026;35.960;2023-05-18T12:09:47;10.38;;;3.40;;
75044;SDS011;63614;56.026;35.960;2023-05-18T12:12:32;14.85;;;3.67;;
75044;SDS011;63614;56.026;35.960;2023-05-18T12:15:20;9.30;;;3.65;;
75044;SDS011;63614;56.026;35.960;2023-05-18T12:18:05;19.45;;;3.85;;
75044;SDS011;63614;56.026;35.960;2023-05-18T12:20:50;12.02;;;3.38;;
75044;SDS011;63614;56.026;35.960;2023-05-18T12:23:36;12.45;;;3.90;;
75044;SDS011;63614;56.026;35.960;2023-05-18T12:26:20;9.50;;;3.67;;
75044;SDS011;63614;56.026;35.960;2023-05-18T12:29:08;12.00;;;3.50;;
75044;SDS011;63614;56.026;35.960;2023-05-18T12:31:54;13.80;;;3.40;;
75044;SDS011;63614;56.026;35.960;2023-05-18T12:34:38;8.77;;;3.33;;
75044;SDS011;63614;56.026;35.960;2023-05-18T12:37:23;11.00;;;3.17;;
75044;SDS011;63614;56.026;35.960;2023-05-18T12:40:08;15.13;;;3.47;;
75044;SDS011;63614;56.026;35.960;2023-05-18T12:42:53;16.60;;;3.95;;
75044;SDS011;63614;56.026;35.960;2023-05-18T12:45:38;14.65;;;3.58;;
75044;SDS011;63614;56.026;35.960;2023-05-18T12:48:24;19.23;;;3.92;;
75044;SDS011;63614;56.026;35.960;2023-05-18T12:51:16;11.55;;;4.18;;
75044;SDS011;63614;56.026;35.960;2023-05-18T12:54:05;11.70;;;3.50;;
75044;SDS011;63614;56.026;35.960;2023-05-18T12:56:51;12.50;;;3.47;;
75044;SDS011;63614;56.026;35.960;2023-05-18T12:59:48;12.63;;;3.70;;
75044;SDS011;63614;56.026;35.960;2023-05-18T13:02:33;11.95;;;3.90;;
75044;SDS011;63614;56.026;35.960;2023-05-18T13:05:22;13.65;;;3.55;;
75044;SDS011;63614;56.026;35.960;2023-05-18T13:08:07;21.80;;;3.95;;
75044;SDS011;63614;56.026;35.960;2023-05-18T13:10:52;14.05;;;3.97;;
75044;SDS011;63614;56.026;35.960;2023-05-18T13:13:36;10.35;;;3.70;;
75044;SDS011;63614;56.026;35.960;2023-05-18T13:16:21;11.50;;;3.83;;
75044;SDS011;63614;56.026;35.960;2023-05-18T13:19:07;14.38;;;4.55;;
75044;SDS011;63614;56.026;35.960;2023-05-18T13:21:56;24.10;;;5.75;;
75044;SDS011;63614;56.026;35.960;2023-05-18T13:27:27;15.52;;;6.00;;
75044;SDS011;63614;56.026;35.960;2023-05-18T13:30:14;20.75;;;8.63;;
75044;SDS011;63614;56.026;35.960;2023-05-18T13:32:58;17.10;;;6.70;;
75044;SDS011;63614;56.026;35.960;2023-05-18T13:35:43;14.18;;;6.85;;
75044;SDS011;63614;56.026;35.960;2023-05-18T13:38:29;23.10;;;4.63;;
75044;SDS011;63614;56.026;35.960;2023-05-18T13:41:14;15.63;;;5.90;;
75044;SDS011;63614;56.026;35.960;2023-05-18T13:43:59;11.75;;;5.68;;
75044;SDS011;63614;56.026;35.960;2023-05-18T13:46:43;19.55;;;8.07;;
75044;SDS011;63614;56.026;35.960;2023-05-18T13:49:28;20.45;;;9.27;;
75044;SDS011;63614;56.026;35.960;2023-05-18T13:52:12;19.15;;;8.00;;
75044;SDS011;63614;56.026;35.960;2023-05-18T13:54:57;19.02;;;8.15;;
75044;SDS011;63614;56.026;35.960;2023-05-18T13:57:41;17.60;;;8.57;;
75044;SDS011;63614;56.026;35.960;2023-05-18T14:00:27;40.75;;;8.73;;
75044;SDS011;63614;56.026;35.960;2023-05-18T14:03:11;19.88;;;8.43;;
75044;SDS011;63614;56.026;35.960;2023-05-18T14:05:57;22.30;;;9.98;;
75044;SDS011;63614;56.026;35.960;2023-05-18T14:08:42;20.40;;;8.82;;
75044;SDS011;63614;56.026;35.960;2023-05-18T14:11:26;19.83;;;9.50;;
75044;SDS011;63614;56.026;35.960;2023-05-18T14:14:10;15.60;;;8.60;;
75044;SDS011;63614;56.026;35.960;2023-05-18T14:16:55;17.13;;;8.45;;
75044;SDS011;63614;56.026;35.960;2023-05-18T14:19:39;25.90;;;7.80;;
75044;SDS011;63614;56.026;35.960;2023-05-18T14:22:24;23.08;;;8.73;;
75044;SDS011;63614;56.026;35.960;2023-05-18T14:25:13;18.08;;;7.40;;
75044;SDS011;63614;56.026;35.960;2023-05-18T14:27:57;41.22;;;7.50;;
75044;SDS011;63614;56.026;35.960;2023-05-18T14:30:41;14.10;;;5.63;;
75044;SDS011;63614;56.026;35.960;2023-05-18T14:33:26;13.50;;;5.57;;
75044;SDS011;63614;56.026;35.960;2023-05-18T14:36:10;14.25;;;5.68;;
75044;SDS011;63614;56.026;35.960;2023-05-18T14:38:55;17.27;;;5.15;;
75044;SDS011;63614;56.026;35.960;2023-05-18T14:41:39;15.35;;;5.00;;
75044;SDS011;63614;56.026;35.960;2023-05-18T14:44:24;14.95;;;4.70;;
75044;SDS011;63614;56.026;35.960;2023-05-18T14:47:08;16.55;;;4.97;;
75044;SDS011;63614;56.026;35.960;2023-05-18T14:49:53;17.30;;;5.30;;
75044;SDS011;63614;56.026;35.960;2023-05-18T14:52:37;13.80;;;4.53;;
75044;SDS011;63614;56.026;35.960;2023-05-18T14:55:22;13.10;;;5.00;;
75044;SDS011;63614;56.026;35.960;2023-05-18T14:58:06;15.85;;;4.80;;
75044;SDS011;63614;56.026;35.960;2023-05-18T15:00:53;14.00;;;4.22;;
75044;SDS011;63614;56.026;35.960;2023-05-18T15:03:38;15.88;;;4.63;;
75044;SDS011;63614;56.026;35.960;2023-05-18T15:06:23;14.35;;;4.63;;
75044;SDS011;63614;56.026;35.960;2023-05-18T15:09:08;18.10;;;4.60;;
75044;SDS011;63614;56.026;35.960;2023-05-18T15:11:55;12.15;;;4.90;;
75044;SDS011;63614;56.026;35.960;2023-05-18T15:14:39;15.10;;;5.15;;
75044;SDS011;63614;56.026;35.960;2023-05-18T15:17:24;16.60;;;5.13;;
75044;SDS011;63614;56.026;35.960;2023-05-18T15:20:08;20.55;;;5.50;;
75044;SDS011;63614;56.026;35.960;2023-05-18T15:22:54;12.80;;;4.70;;
75044;SDS011;63614;56.026;35.960;2023-05-18T15:25:38;12.82;;;5.00;;
75044;SDS011;63614;56.026;35.960;2023-05-18T15:28:23;15.80;;;5.15;;
75044;SDS011;63614;56.026;35.960;2023-05-18T15:31:08;20.30;;;4.97;;
75044;SDS011;63614;56.026;35.960;2023-05-18T15:33:53;13.98;;;5.40;;
75044;SDS011;63614;56.026;35.960;2023-05-18T15:36:37;20.63;;;5.88;;